sensor_id;sensor_type;location;lat;lon;timestamp;P1;durP1;ratioP1;P2;durP2;ratioP2
65471;SDS011;52068;50.710;14.492;2023-07-13T00:00:37;2.33;;;1.70;;
65471;SDS011;52068;50.710;14.492;2023-07-13T00:03:03;2.03;;;1.20;;
65471;SDS011;52068;50.710;14.492;2023-07-13T00:05:29;1.30;;;1.20;;
65471;SDS011;52068;50.710;14.492;2023-07-13T00:07:54;2.45;;;1.40;;
65471;SDS011;52068;50.710;14.492;2023-07-13T00:10:20;1.45;;;1.30;;
65471;SDS011;52068;50.710;14.492;2023-07-13T00:12:47;3.28;;;1.30;;
65471;SDS011;52068;50.710;14.492;2023-07-13T00:15:16;3.65;;;1.50;;
65471;SDS011;52068;50.710;14.492;2023-07-13T00:17:48;2.95;;;1.50;;
65471;SDS011;52068;50.710;14.492;2023-07-13T00:20:15;3.08;;;1.55;;
65471;SDS011;52068;50.710;14.492;2023-07-13T00:22:40;3.88;;;1.48;;
65471;SDS011;52068;50.710;14.492;2023-07-13T00:25:06;2.03;;;1.35;;
65471;SDS011;52068;50.710;14.492;2023-07-13T00:27:32;2.42;;;1.50;;
65471;SDS011;52068;50.710;14.492;2023-07-13T00:29:57;4.22;;;1.40;;
65471;SDS011;52068;50.710;14.492;2023-07-13T00:32:23;2.17;;;1.20;;
65471;SDS011;52068;50.710;14.492;2023-07-13T00:34:52;2.42;;;1.50;;
65471;SDS011;52068;50.710;14.492;2023-07-13T00:37:18;1.77;;;1.35;;
65471;SDS011;52068;50.710;14.492;2023-07-13T00:39:43;1.50;;;1.40;;
65471;SDS011;52068;50.710;14.492;2023-07-13T00:42:08;1.63;;;1.38;;
65471;SDS011;52068;50.710;14.492;2023-07-13T00:44:34;2.58;;;1.20;;
65471;SDS011;52068;50.710;14.492;2023-07-13T00:47:00;1.63;;;1.40;;
65471;SDS011;52068;50.710;14.492;2023-07-13T00:49:26;3.13;;;1.70;;
65471;SDS011;52068;50.710;14.492;2023-07-13T00:54:34;1.77;;;1.00;;
65471;SDS011;52068;50.710;14.492;2023-07-13T00:57:04;8.48;;;1.65;;
65471;SDS011;52068;50.710;14.492;2023-07-13T00:59:33;7.13;;;1.77;;
65471;SDS011;52068;50.710;14.492;2023-07-13T01:02:01;4.55;;;1.73;;
65471;SDS011;52068;50.710;14.492;2023-07-13T01:04:27;7.00;;;1.40;;
65471;SDS011;52068;50.710;14.492;2023-07-13T01:06:53;7.47;;;1.50;;
65471;SDS011;52068;50.710;14.492;2023-07-13T01:09:19;2.22;;;1.42;;
65471;SDS011;52068;50.710;14.492;2023-07-13T01:11:45;2.05;;;1.25;;
65471;SDS011;52068;50.710;14.492;2023-07-13T01:14:12;2.72;;;1.23;;
65471;SDS011;52068;50.710;14.492;2023-07-13T01:16:37;1.83;;;1.25;;
65471;SDS011;52068;50.710;14.492;2023-07-13T01:19:10;8.20;;;1.80;;
65471;SDS011;52068;50.710;14.492;2023-07-13T01:21:51;1.85;;;1.30;;
65471;SDS011;52068;50.710;14.492;2023-07-13T01:24:17;4.50;;;1.67;;
65471;SDS011;52068;50.710;14.492;2023-07-13T01:26:43;3.00;;;1.38;;
65471;SDS011;52068;50.710;14.492;2023-07-13T01:29:08;4.78;;;1.30;;
65471;SDS011;52068;50.710;14.492;2023-07-13T01:31:34;3.53;;;1.48;;
65471;SDS011;52068;50.710;14.492;2023-07-13T01:33:59;3.22;;;1.42;;
65471;SDS011;52068;50.710;14.492;2023-07-13T01:36:25;11.18;;;1.63;;
65471;SDS011;52068;50.710;14.492;2023-07-13T01:38:50;2.13;;;1.42;;
65471;SDS011;52068;50.710;14.492;2023-07-13T01:41:16;7.03;;;1.80;;
65471;SDS011;52068;50.710;14.492;2023-07-13T01:43:41;1.92;;;1.30;;
65471;SDS011;52068;50.710;14.492;2023-07-13T01:46:07;3.92;;;1.30;;
65471;SDS011;52068;50.710;14.492;2023-07-13T01:48:32;1.80;;;1.33;;
65471;SDS011;52068;50.710;14.492;2023-07-13T01:50:57;2.85;;;1.40;;
65471;SDS011;52068;50.710;14.492;2023-07-13T01:53:23;7.03;;;1.70;;
65471;SDS011;52068;50.710;14.492;2023-07-13T01:55:48;4.47;;;1.38;;
65471;SDS011;52068;50.710;14.492;2023-07-13T01:58:14;6.70;;;1.55;;
65471;SDS011;52068;50.710;14.492;2023-07-13T02:00:39;1.75;;;1.38;;
65471;SDS011;52068;50.710;14.492;2023-07-13T02:03:04;4.07;;;1.50;;
65471;SDS011;52068;50.710;14.492;2023-07-13T02:05:30;3.88;;;1.38;;
65471;SDS011;52068;50.710;14.492;2023-07-13T02:07:55;5.60;;;1.35;;
65471;SDS011;52068;50.710;14.492;2023-07-13T02:10:20;5.43;;;2.03;;
65471;SDS011;52068;50.710;14.492;2023-07-13T02:12:47;2.10;;;1.35;;
65471;SDS011;52068;50.710;14.492;2023-07-13T02:15:14;6.50;;;1.60;;
65471;SDS011;52068;50.710;14.492;2023-07-13T02:17:39;4.13;;;1.20;;
65471;SDS011;52068;50.710;14.492;2023-07-13T02:20:06;4.80;;;1.42;;
65471;SDS011;52068;50.710;14.492;2023-07-13T02:22:33;1.60;;;1.30;;
65471;SDS011;52068;50.710;14.492;2023-07-13T02:24:58;8.65;;;1.30;;
65471;SDS011;52068;50.710;14.492;2023-07-13T02:27:24;2.42;;;1.42;;
65471;SDS011;52068;50.710;14.492;2023-07-13T02:29:50;2.00;;;1.40;;
65471;SDS011;52068;50.710;14.492;2023-07-13T02:32:16;2.60;;;1.50;;
65471;SDS011;52068;50.710;14.492;2023-07-13T02:34:42;4.97;;;2.00;;
65471;SDS011;52068;50.710;14.492;2023-07-13T02:37:08;3.15;;;1.45;;
65471;SDS011;52068;50.710;14.492;2023-07-13T02:39:33;2.88;;;1.60;;
65471;SDS011;52068;50.710;14.492;2023-07-13T02:41:59;3.30;;;1.45;;
65471;SDS011;52068;50.710;14.492;2023-07-13T02:44:25;3.13;;;1.42;;
65471;SDS011;52068;50.710;14.492;2023-07-13T02:46:51;1.42;;;1.27;;
65471;SDS011;52068;50.710;14.492;2023-07-13T02:49:16;4.85;;;1.55;;
65471;SDS011;52068;50.710;14.492;2023-07-13T02:51:41;2.95;;;1.45;;
65471;SDS011;52068;50.710;14.492;2023-07-13T02:54:07;1.67;;;1.30;;
65471;SDS011;52068;50.710;14.492;2023-07-13T02:56:33;4.28;;;1.50;;
65471;SDS011;52068;50.710;14.492;2023-07-13T02:58:59;1.23;;;1.10;;
65471;SDS011;52068;50.710;14.492;2023-07-13T03:01:24;4.35;;;1.52;;
65471;SDS011;52068;50.710;14.492;2023-07-13T03:03:50;6.45;;;1.60;;
65471;SDS011;52068;50.710;14.492;2023-07-13T03:06:17;5.93;;;1.25;;
65471;SDS011;52068;50.710;14.492;2023-07-13T03:08:43;3.80;;;1.65;;
65471;SDS011;52068;50.710;14.492;2023-07-13T03:11:10;3.97;;;1.60;;
65471;SDS011;52068;50.710;14.492;2023-07-13T03:13:39;2.97;;;1.35;;
65471;SDS011;52068;50.710;14.492;2023-07-13T03:16:06;3.05;;;1.42;;
65471;SDS011;52068;50.710;14.492;2023-07-13T03:18:32;1.83;;;1.23;;
65471;SDS011;52068;50.710;14.492;2023-07-13T03:20:57;3.47;;;1.40;;
65471;SDS011;52068;50.710;14.492;2023-07-13T03:23:23;4.07;;;1.70;;
65471;SDS011;52068;50.710;14.492;2023-07-13T03:25:49;2.60;;;1.40;;
65471;SDS011;52068;50.710;14.492;2023-07-13T03:28:15;3.15;;;1.38;;
65471;SDS011;52068;50.710;14.492;2023-07-13T03:30:41;3.15;;;1.65;;
65471;SDS011;52068;50.710;14.492;2023-07-13T03:33:06;2.40;;;1.35;;
65471;SDS011;52068;50.710;14.492;2023-07-13T03:35:33;1.70;;;1.50;;
65471;SDS011;52068;50.710;14.492;2023-07-13T03:37:59;4.03;;;1.30;;
65471;SDS011;52068;50.710;14.492;2023-07-13T03:40:25;2.53;;;1.23;;
65471;SDS011;52068;50.710;14.492;2023-07-13T03:42:52;1.85;;;1.40;;
65471;SDS011;52068;50.710;14.492;2023-07-13T03:45:18;1.50;;;1.27;;
65471;SDS011;52068;50.710;14.492;2023-07-13T03:47:44;2.53;;;1.40;;
65471;SDS011;52068;50.710;14.492;2023-07-13T03:50:10;4.47;;;1.77;;
65471;SDS011;52068;50.710;14.492;2023-07-13T03:52:35;3.92;;;1.60;;
65471;SDS011;52068;50.710;14.492;2023-07-13T03:55:00;1.50;;;1.40;;
65471;SDS011;52068;50.710;14.492;2023-07-13T03:57:26;3.42;;;1.50;;
65471;SDS011;52068;50.710;14.492;2023-07-13T03:59:51;2.38;;;1.38;;
65471;SDS011;52068;50.710;14.492;2023-07-13T04:02:17;1.60;;;1.30;;
65471;SDS011;52068;50.710;14.492;2023-07-13T04:04:42;3.00;;;1.52;;
65471;SDS011;52068;50.710;14.492;2023-07-13T04:07:08;3.28;;;1.60;;
65471;SDS011;52068;50.710;14.492;2023-07-13T04:09:34;2.92;;;1.50;;
65471;SDS011;52068;50.710;14.492;2023-07-13T04:12:00;2.85;;;1.40;;
65471;SDS011;52068;50.710;14.492;2023-07-13T04:14:25;1.95;;;1.50;;
65471;SDS011;52068;50.710;14.492;2023-07-13T04:16:51;3.55;;;1.20;;
65471;SDS011;52068;50.710;14.492;2023-07-13T04:19:16;5.32;;;1.80;;
65471;SDS011;52068;50.710;14.492;2023-07-13T04:21:42;2.25;;;1.60;;
65471;SDS011;52068;50.710;14.492;2023-07-13T04:24:08;3.28;;;1.50;;
65471;SDS011;52068;50.710;14.492;2023-07-13T04:26:34;17.55;;;1.60;;
65471;SDS011;52068;50.710;14.492;2023-07-13T04:29:01;2.78;;;1.50;;
65471;SDS011;52068;50.710;14.492;2023-07-13T04:31:28;2.80;;;1.75;;
65471;SDS011;52068;50.710;14.492;2023-07-13T04:33:54;1.90;;;1.38;;
65471;SDS011;52068;50.710;14.492;2023-07-13T04:36:19;1.83;;;1.30;;
65471;SDS011;52068;50.710;14.492;2023-07-13T04:38:45;8.02;;;1.48;;
65471;SDS011;52068;50.710;14.492;2023-07-13T04:41:10;1.90;;;1.30;;
65471;SDS011;52068;50.710;14.492;2023-07-13T04:43:37;1.85;;;1.52;;
65471;SDS011;52068;50.710;14.492;2023-07-13T04:46:06;6.47;;;1.60;;
65471;SDS011;52068;50.710;14.492;2023-07-13T04:48:33;12.32;;;1.50;;
65471;SDS011;52068;50.710;14.492;2023-07-13T04:50:59;2.75;;;1.25;;
65471;SDS011;52068;50.710;14.492;2023-07-13T04:53:25;2.85;;;2.13;;
65471;SDS011;52068;50.710;14.492;2023-07-13T04:55:51;2.50;;;1.60;;
65471;SDS011;52068;50.710;14.492;2023-07-13T04:58:17;3.00;;;1.50;;
65471;SDS011;52068;50.710;14.492;2023-07-13T05:00:42;3.92;;;1.73;;
65471;SDS011;52068;50.710;14.492;2023-07-13T05:03:07;3.50;;;1.48;;
65471;SDS011;52068;50.710;14.492;2023-07-13T05:05:33;3.17;;;1.50;;
65471;SDS011;52068;50.710;14.492;2023-07-13T05:07:59;4.60;;;1.80;;
65471;SDS011;52068;50.710;14.492;2023-07-13T05:10:24;1.63;;;1.25;;
65471;SDS011;52068;50.710;14.492;2023-07-13T05:12:50;4.97;;;1.63;;
65471;SDS011;52068;50.710;14.492;2023-07-13T05:15:15;1.38;;;1.20;;
65471;SDS011;52068;50.710;14.492;2023-07-13T05:17:46;2.50;;;1.63;;
65471;SDS011;52068;50.710;14.492;2023-07-13T05:20:15;4.80;;;1.60;;
65471;SDS011;52068;50.710;14.492;2023-07-13T05:22:42;1.73;;;1.20;;
65471;SDS011;52068;50.710;14.492;2023-07-13T05:25:08;4.72;;;1.23;;
65471;SDS011;52068;50.710;14.492;2023-07-13T05:27:34;3.13;;;1.30;;
65471;SDS011;52068;50.710;14.492;2023-07-13T05:30:00;3.67;;;1.48;;
65471;SDS011;52068;50.710;14.492;2023-07-13T05:32:27;3.40;;;1.60;;
65471;SDS011;52068;50.710;14.492;2023-07-13T05:34:52;3.50;;;1.55;;
65471;SDS011;52068;50.710;14.492;2023-07-13T05:37:17;6.90;;;1.48;;
65471;SDS011;52068;50.710;14.492;2023-07-13T05:39:43;4.82;;;1.70;;
65471;SDS011;52068;50.710;14.492;2023-07-13T05:42:08;7.88;;;2.00;;
65471;SDS011;52068;50.710;14.492;2023-07-13T05:44:34;2.70;;;1.50;;
65471;SDS011;52068;50.710;14.492;2023-07-13T05:46:59;6.28;;;1.40;;
65471;SDS011;52068;50.710;14.492;2023-07-13T05:49:25;2.08;;;1.40;;
65471;SDS011;52068;50.710;14.492;2023-07-13T05:51:50;2.35;;;1.50;;
65471;SDS011;52068;50.710;14.492;2023-07-13T05:54:15;2.55;;;1.50;;
65471;SDS011;52068;50.710;14.492;2023-07-13T05:56:41;3.35;;;1.73;;
65471;SDS011;52068;50.710;14.492;2023-07-13T05:59:06;3.47;;;1.63;;
65471;SDS011;52068;50.710;14.492;2023-07-13T06:01:32;3.58;;;2.30;;
65471;SDS011;52068;50.710;14.492;2023-07-13T06:03:57;11.88;;;6.70;;
65471;SDS011;52068;50.710;14.492;2023-07-13T06:06:23;18.23;;;10.88;;
65471;SDS011;52068;50.710;14.492;2023-07-13T06:08:48;35.80;;;22.02;;
65471;SDS011;52068;50.710;14.492;2023-07-13T06:11:15;34.85;;;23.95;;
65471;SDS011;52068;50.710;14.492;2023-07-13T06:13:43;21.45;;;12.80;;
65471;SDS011;52068;50.710;14.492;2023-07-13T06:16:08;17.17;;;12.73;;
65471;SDS011;52068;50.710;14.492;2023-07-13T06:18:35;13.93;;;10.23;;
65471;SDS011;52068;50.710;14.492;2023-07-13T06:21:05;12.60;;;7.72;;
65471;SDS011;52068;50.710;14.492;2023-07-13T06:23:34;13.00;;;7.00;;
65471;SDS011;52068;50.710;14.492;2023-07-13T06:26:00;10.38;;;6.68;;
65471;SDS011;52068;50.710;14.492;2023-07-13T06:28:26;7.93;;;5.00;;
65471;SDS011;52068;50.710;14.492;2023-07-13T06:30:51;6.47;;;3.97;;
65471;SDS011;52068;50.710;14.492;2023-07-13T06:33:16;4.05;;;3.40;;
65471;SDS011;52068;50.710;14.492;2023-07-13T06:35:42;5.28;;;2.88;;
65471;SDS011;52068;50.710;14.492;2023-07-13T06:38:07;4.97;;;2.90;;
65471;SDS011;52068;50.710;14.492;2023-07-13T06:40:33;3.05;;;2.30;;
65471;SDS011;52068;50.710;14.492;2023-07-13T06:42:58;3.88;;;2.60;;
65471;SDS011;52068;50.710;14.492;2023-07-13T06:45:23;3.03;;;1.85;;
65471;SDS011;52068;50.710;14.492;2023-07-13T06:47:49;3.03;;;1.83;;
65471;SDS011;52068;50.710;14.492;2023-07-13T06:50:14;2.72;;;1.83;;
65471;SDS011;52068;50.710;14.492;2023-07-13T06:52:40;3.53;;;1.80;;
65471;SDS011;52068;50.710;14.492;2023-07-13T06:55:05;2.28;;;1.63;;
65471;SDS011;52068;50.710;14.492;2023-07-13T06:57:31;3.17;;;1.45;;
65471;SDS011;52068;50.710;14.492;2023-07-13T06:59:57;3.70;;;1.48;;
65471;SDS011;52068;50.710;14.492;2023-07-13T07:02:22;2.22;;;1.60;;
65471;SDS011;52068;50.710;14.492;2023-07-13T07:04:48;2.13;;;1.67;;
65471;SDS011;52068;50.710;14.492;2023-07-13T07:07:13;5.57;;;1.77;;
65471;SDS011;52068;50.710;14.492;2023-07-13T07:09:38;2.65;;;1.70;;
65471;SDS011;52068;50.710;14.492;2023-07-13T07:12:04;4.50;;;2.10;;
65471;SDS011;52068;50.710;14.492;2023-07-13T07:14:29;5.25;;;2.28;;
65471;SDS011;52068;50.710;14.492;2023-07-13T07:16:55;6.28;;;2.00;;
65471;SDS011;52068;50.710;14.492;2023-07-13T07:19:20;3.38;;;1.88;;
65471;SDS011;52068;50.710;14.492;2023-07-13T07:21:46;6.03;;;1.90;;
65471;SDS011;52068;50.710;14.492;2023-07-13T07:24:11;2.78;;;1.80;;
65471;SDS011;52068;50.710;14.492;2023-07-13T07:26:36;3.35;;;1.75;;
65471;SDS011;52068;50.710;14.492;2023-07-13T07:29:02;3.17;;;1.73;;
65471;SDS011;52068;50.710;14.492;2023-07-13T07:31:27;1.95;;;1.60;;
65471;SDS011;52068;50.710;14.492;2023-07-13T07:33:52;4.72;;;1.60;;
65471;SDS011;52068;50.710;14.492;2023-07-13T07:36:18;2.33;;;1.60;;
65471;SDS011;52068;50.710;14.492;2023-07-13T07:38:43;5.50;;;1.80;;
65471;SDS011;52068;50.710;14.492;2023-07-13T07:41:09;3.22;;;1.83;;
65471;SDS011;52068;50.710;14.492;2023-07-13T07:43:35;4.28;;;1.73;;
65471;SDS011;52068;50.710;14.492;2023-07-13T07:46:01;3.47;;;1.70;;
65471;SDS011;52068;50.710;14.492;2023-07-13T07:48:27;1.95;;;1.67;;
65471;SDS011;52068;50.710;14.492;2023-07-13T07:50:52;3.97;;;1.60;;
65471;SDS011;52068;50.710;14.492;2023-07-13T07:53:18;6.88;;;2.03;;
65471;SDS011;52068;50.710;14.492;2023-07-13T07:55:43;4.22;;;2.05;;
65471;SDS011;52068;50.710;14.492;2023-07-13T07:58:09;6.95;;;1.92;;
65471;SDS011;52068;50.710;14.492;2023-07-13T08:00:34;5.10;;;1.70;;
65471;SDS011;52068;50.710;14.492;2023-07-13T08:03:00;7.30;;;1.75;;
65471;SDS011;52068;50.710;14.492;2023-07-13T08:05:26;7.05;;;1.50;;
65471;SDS011;52068;50.710;14.492;2023-07-13T08:07:51;3.33;;;1.40;;
65471;SDS011;52068;50.710;14.492;2023-07-13T08:10:17;2.13;;;1.58;;
65471;SDS011;52068;50.710;14.492;2023-07-13T08:12:42;3.38;;;1.52;;
65471;SDS011;52068;50.710;14.492;2023-07-13T08:15:12;3.28;;;1.33;;
65471;SDS011;52068;50.710;14.492;2023-07-13T08:17:39;6.43;;;1.63;;
65471;SDS011;52068;50.710;14.492;2023-07-13T08:20:04;2.83;;;1.60;;
65471;SDS011;52068;50.710;14.492;2023-07-13T08:22:30;3.47;;;1.40;;
65471;SDS011;52068;50.710;14.492;2023-07-13T08:24:56;2.20;;;1.50;;
65471;SDS011;52068;50.710;14.492;2023-07-13T08:27:25;3.40;;;1.60;;
65471;SDS011;52068;50.710;14.492;2023-07-13T08:29:51;4.00;;;1.75;;
65471;SDS011;52068;50.710;14.492;2023-07-13T08:32:18;6.22;;;1.60;;
65471;SDS011;52068;50.710;14.492;2023-07-13T08:34:44;6.93;;;1.90;;
65471;SDS011;52068;50.710;14.492;2023-07-13T08:37:10;3.08;;;1.42;;
65471;SDS011;52068;50.710;14.492;2023-07-13T08:39:35;1.80;;;1.48;;
65471;SDS011;52068;50.710;14.492;2023-07-13T08:42:23;2.47;;;1.48;;
65471;SDS011;52068;50.710;14.492;2023-07-13T08:47:52;6.07;;;1.65;;
65471;SDS011;52068;50.710;14.492;2023-07-13T08:50:23;5.20;;;1.70;;
65471;SDS011;52068;50.710;14.492;2023-07-13T08:52:53;3.53;;;1.30;;
65471;SDS011;52068;50.710;14.492;2023-07-13T08:55:21;4.82;;;1.15;;
65471;SDS011;52068;50.710;14.492;2023-07-13T08:57:50;3.95;;;1.55;;
65471;SDS011;52068;50.710;14.492;2023-07-13T09:00:21;3.47;;;1.73;;
65471;SDS011;52068;50.710;14.492;2023-07-13T09:02:52;8.65;;;1.80;;
65471;SDS011;52068;50.710;14.492;2023-07-13T09:05:34;3.10;;;1.42;;
65471;SDS011;52068;50.710;14.492;2023-07-13T09:08:28;4.65;;;1.40;;
65471;SDS011;52068;50.710;14.492;2023-07-13T09:14:39;2.65;;;1.17;;
65471;SDS011;52068;50.710;14.492;2023-07-13T09:17:11;4.05;;;1.40;;
65471;SDS011;52068;50.710;14.492;2023-07-13T09:19:40;4.10;;;1.40;;
65471;SDS011;52068;50.710;14.492;2023-07-13T09:22:08;4.05;;;1.60;;
65471;SDS011;52068;50.710;14.492;2023-07-13T09:24:42;2.70;;;0.93;;
65471;SDS011;52068;50.710;14.492;2023-07-13T09:27:23;5.82;;;1.17;;
65471;SDS011;52068;50.710;14.492;2023-07-13T09:30:11;2.17;;;1.00;;
65471;SDS011;52068;50.710;14.492;2023-07-13T09:32:50;3.80;;;1.27;;
65471;SDS011;52068;50.710;14.492;2023-07-13T09:35:20;3.90;;;0.95;;
65471;SDS011;52068;50.710;14.492;2023-07-13T09:37:49;4.20;;;1.33;;
65471;SDS011;52068;50.710;14.492;2023-07-13T09:40:27;2.80;;;1.20;;
65471;SDS011;52068;50.710;14.492;2023-07-13T09:43:28;1.88;;;0.90;;
65471;SDS011;52068;50.710;14.492;2023-07-13T09:45:54;2.85;;;1.13;;
65471;SDS011;52068;50.710;14.492;2023-07-13T09:48:20;2.20;;;1.23;;
65471;SDS011;52068;50.710;14.492;2023-07-13T09:50:46;5.70;;;1.20;;
65471;SDS011;52068;50.710;14.492;2023-07-13T09:53:16;4.25;;;0.88;;
65471;SDS011;52068;50.710;14.492;2023-07-13T09:55:44;5.53;;;1.00;;
65471;SDS011;52068;50.710;14.492;2023-07-13T09:58:13;2.92;;;0.93;;
65471;SDS011;52068;50.710;14.492;2023-07-13T10:00:39;2.70;;;0.80;;
65471;SDS011;52068;50.710;14.492;2023-07-13T10:03:13;3.47;;;1.40;;
65471;SDS011;52068;50.710;14.492;2023-07-13T10:05:44;2.05;;;1.20;;
65471;SDS011;52068;50.710;14.492;2023-07-13T10:08:17;3.25;;;1.05;;
65471;SDS011;52068;50.710;14.492;2023-07-13T10:10:45;2.67;;;1.00;;
65471;SDS011;52068;50.710;14.492;2023-07-13T10:13:24;2.83;;;1.13;;
65471;SDS011;52068;50.710;14.492;2023-07-13T10:15:50;4.43;;;1.20;;
65471;SDS011;52068;50.710;14.492;2023-07-13T10:18:16;2.03;;;0.98;;
65471;SDS011;52068;50.710;14.492;2023-07-13T10:20:42;2.42;;;0.95;;
65471;SDS011;52068;50.710;14.492;2023-07-13T10:23:10;4.82;;;1.10;;
65471;SDS011;52068;50.710;14.492;2023-07-13T10:25:45;3.75;;;1.27;;
65471;SDS011;52068;50.710;14.492;2023-07-13T10:30:49;5.45;;;1.15;;
65471;SDS011;52068;50.710;14.492;2023-07-13T10:33:17;9.77;;;1.13;;
65471;SDS011;52068;50.710;14.492;2023-07-13T10:35:43;3.15;;;0.98;;
65471;SDS011;52068;50.710;14.492;2023-07-13T10:38:12;5.00;;;1.25;;
65471;SDS011;52068;50.710;14.492;2023-07-13T10:40:46;3.10;;;1.00;;
65471;SDS011;52068;50.710;14.492;2023-07-13T10:43:26;2.22;;;1.05;;
65471;SDS011;52068;50.710;14.492;2023-07-13T10:45:56;1.65;;;0.88;;
65471;SDS011;52068;50.710;14.492;2023-07-13T10:48:24;2.72;;;1.17;;
65471;SDS011;52068;50.710;14.492;2023-07-13T10:50:51;3.22;;;1.08;;
65471;SDS011;52068;50.710;14.492;2023-07-13T10:53:22;4.70;;;1.30;;
65471;SDS011;52068;50.710;14.492;2023-07-13T10:56:23;2.63;;;1.05;;
65471;SDS011;52068;50.710;14.492;2023-07-13T11:01:49;4.93;;;1.23;;
65471;SDS011;52068;50.710;14.492;2023-07-13T11:04:19;2.60;;;1.17;;
65471;SDS011;52068;50.710;14.492;2023-07-13T11:06:46;6.82;;;1.52;;
65471;SDS011;52068;50.710;14.492;2023-07-13T11:09:31;4.10;;;1.42;;
65471;SDS011;52068;50.710;14.492;2023-07-13T11:17:46;2.83;;;1.35;;
65471;SDS011;52068;50.710;14.492;2023-07-13T11:28:04;4.85;;;1.23;;
65471;SDS011;52068;50.710;14.492;2023-07-13T11:30:41;7.25;;;1.00;;
65471;SDS011;52068;50.710;14.492;2023-07-13T11:33:21;3.53;;;1.13;;
65471;SDS011;52068;50.710;14.492;2023-07-13T11:35:59;4.47;;;1.50;;
65471;SDS011;52068;50.710;14.492;2023-07-13T11:41:14;2.17;;;0.90;;
65471;SDS011;52068;50.710;14.492;2023-07-13T11:43:42;2.17;;;1.23;;
65471;SDS011;52068;50.710;14.492;2023-07-13T11:46:20;1.92;;;1.20;;
65471;SDS011;52068;50.710;14.492;2023-07-13T11:48:47;4.50;;;1.05;;
65471;SDS011;52068;50.710;14.492;2023-07-13T11:51:23;2.83;;;1.08;;
65471;SDS011;52068;50.710;14.492;2023-07-13T11:53:53;2.25;;;1.10;;
65471;SDS011;52068;50.710;14.492;2023-07-13T11:56:20;3.75;;;1.40;;
65471;SDS011;52068;50.710;14.492;2023-07-13T11:58:48;3.20;;;1.30;;
65471;SDS011;52068;50.710;14.492;2023-07-13T12:01:26;3.33;;;1.30;;
65471;SDS011;52068;50.710;14.492;2023-07-13T12:03:57;2.05;;;1.00;;
65471;SDS011;52068;50.710;14.492;2023-07-13T12:06:34;5.15;;;1.20;;
65471;SDS011;52068;50.710;14.492;2023-07-13T12:09:13;5.75;;;1.10;;
65471;SDS011;52068;50.710;14.492;2023-07-13T12:11:42;5.75;;;1.17;;
65471;SDS011;52068;50.710;14.492;2023-07-13T12:14:15;3.60;;;1.23;;
65471;SDS011;52068;50.710;14.492;2023-07-13T12:16:41;2.85;;;1.00;;
65471;SDS011;52068;50.710;14.492;2023-07-13T12:19:17;4.03;;;1.30;;
65471;SDS011;52068;50.710;14.492;2023-07-13T12:21:44;2.88;;;1.50;;
65471;SDS011;52068;50.710;14.492;2023-07-13T12:24:19;1.67;;;1.08;;
65471;SDS011;52068;50.710;14.492;2023-07-13T12:27:13;5.60;;;1.30;;
65471;SDS011;52068;50.710;14.492;2023-07-13T12:29:48;1.98;;;1.25;;
65471;SDS011;52068;50.710;14.492;2023-07-13T12:32:17;3.53;;;1.00;;
65471;SDS011;52068;50.710;14.492;2023-07-13T12:34:56;4.40;;;1.30;;
65471;SDS011;52068;50.710;14.492;2023-07-13T12:37:41;2.83;;;1.52;;
65471;SDS011;52068;50.710;14.492;2023-07-13T12:40:17;5.25;;;1.30;;
65471;SDS011;52068;50.710;14.492;2023-07-13T12:42:46;2.95;;;1.15;;
65471;SDS011;52068;50.710;14.492;2023-07-13T12:45:18;9.00;;;1.38;;
65471;SDS011;52068;50.710;14.492;2023-07-13T12:47:49;5.22;;;1.33;;
65471;SDS011;52068;50.710;14.492;2023-07-13T12:50:18;5.63;;;1.27;;
65471;SDS011;52068;50.710;14.492;2023-07-13T12:52:50;4.00;;;1.20;;
65471;SDS011;52068;50.710;14.492;2023-07-13T12:55:21;5.00;;;1.30;;
65471;SDS011;52068;50.710;14.492;2023-07-13T12:57:54;3.88;;;1.23;;
65471;SDS011;52068;50.710;14.492;2023-07-13T13:00:27;10.73;;;1.48;;
65471;SDS011;52068;50.710;14.492;2023-07-13T13:02:58;9.43;;;1.55;;
65471;SDS011;52068;50.710;14.492;2023-07-13T13:05:28;12.45;;;1.55;;
65471;SDS011;52068;50.710;14.492;2023-07-13T13:07:55;8.68;;;1.45;;
65471;SDS011;52068;50.710;14.492;2023-07-13T13:10:20;8.60;;;1.40;;
65471;SDS011;52068;50.710;14.492;2023-07-13T13:12:46;5.13;;;1.40;;
65471;SDS011;52068;50.710;14.492;2023-07-13T13:15:12;4.88;;;1.42;;
65471;SDS011;52068;50.710;14.492;2023-07-13T13:17:38;10.27;;;1.63;;
65471;SDS011;52068;50.710;14.492;2023-07-13T13:20:13;2.65;;;1.30;;
65471;SDS011;52068;50.710;14.492;2023-07-13T13:22:39;20.45;;;1.70;;
65471;SDS011;52068;50.710;14.492;2023-07-13T13:25:04;3.67;;;1.35;;
65471;SDS011;52068;50.710;14.492;2023-07-13T13:27:30;8.20;;;1.42;;
65471;SDS011;52068;50.710;14.492;2023-07-13T13:29:55;12.13;;;1.92;;
65471;SDS011;52068;50.710;14.492;2023-07-13T13:32:22;7.32;;;1.40;;
65471;SDS011;52068;50.710;14.492;2023-07-13T13:34:48;4.10;;;0.90;;
65471;SDS011;52068;50.710;14.492;2023-07-13T13:37:20;5.68;;;1.23;;
65471;SDS011;52068;50.710;14.492;2023-07-13T13:39:46;3.05;;;1.02;;
65471;SDS011;52068;50.710;14.492;2023-07-13T13:42:13;3.40;;;1.42;;
65471;SDS011;52068;50.710;14.492;2023-07-13T13:44:39;6.57;;;1.55;;
65471;SDS011;52068;50.710;14.492;2023-07-13T13:47:13;3.45;;;1.10;;
65471;SDS011;52068;50.710;14.492;2023-07-13T13:49:47;4.57;;;1.10;;
65471;SDS011;52068;50.710;14.492;2023-07-13T13:52:13;6.88;;;1.33;;
65471;SDS011;52068;50.710;14.492;2023-07-13T13:54:38;4.38;;;1.40;;
65471;SDS011;52068;50.710;14.492;2023-07-13T13:57:04;5.43;;;1.35;;
65471;SDS011;52068;50.710;14.492;2023-07-13T13:59:29;2.67;;;1.15;;
65471;SDS011;52068;50.710;14.492;2023-07-13T14:01:57;3.90;;;1.20;;
65471;SDS011;52068;50.710;14.492;2023-07-13T14:04:25;3.38;;;1.20;;
65471;SDS011;52068;50.710;14.492;2023-07-13T14:06:50;2.40;;;1.30;;
65471;SDS011;52068;50.710;14.492;2023-07-13T14:09:16;2.67;;;1.40;;
65471;SDS011;52068;50.710;14.492;2023-07-13T14:11:44;3.28;;;0.98;;
65471;SDS011;52068;50.710;14.492;2023-07-13T14:14:12;4.85;;;1.45;;
65471;SDS011;52068;50.710;14.492;2023-07-13T14:16:41;2.47;;;1.20;;
65471;SDS011;52068;50.710;14.492;2023-07-13T14:19:08;12.18;;;1.70;;
65471;SDS011;52068;50.710;14.492;2023-07-13T14:21:36;12.65;;;1.50;;
65471;SDS011;52068;50.710;14.492;2023-07-13T14:24:02;2.72;;;1.17;;
65471;SDS011;52068;50.710;14.492;2023-07-13T14:26:27;2.55;;;1.20;;
65471;SDS011;52068;50.710;14.492;2023-07-13T14:29:01;3.65;;;1.30;;
65471;SDS011;52068;50.710;14.492;2023-07-13T14:31:30;6.03;;;1.50;;
65471;SDS011;52068;50.710;14.492;2023-07-13T14:33:55;2.80;;;1.30;;
65471;SDS011;52068;50.710;14.492;2023-07-13T14:36:23;2.13;;;1.00;;
65471;SDS011;52068;50.710;14.492;2023-07-13T14:38:52;4.05;;;1.35;;
65471;SDS011;52068;50.710;14.492;2023-07-13T14:41:19;1.27;;;1.15;;
65471;SDS011;52068;50.710;14.492;2023-07-13T14:43:45;3.67;;;1.27;;
65471;SDS011;52068;50.710;14.492;2023-07-13T14:46:44;3.95;;;1.13;;
65471;SDS011;52068;50.710;14.492;2023-07-13T14:49:04;2.63;;;1.35;;
65471;SDS011;52068;50.710;14.492;2023-07-13T14:51:35;3.88;;;1.08;;
65471;SDS011;52068;50.710;14.492;2023-07-13T14:54:02;4.50;;;0.90;;
65471;SDS011;52068;50.710;14.492;2023-07-13T14:56:29;2.83;;;0.90;;
65471;SDS011;52068;50.710;14.492;2023-07-13T14:58:55;3.17;;;1.30;;
65471;SDS011;52068;50.710;14.492;2023-07-13T15:01:20;2.25;;;1.17;;
65471;SDS011;52068;50.710;14.492;2023-07-13T15:03:48;4.68;;;1.48;;
65471;SDS011;52068;50.710;14.492;2023-07-13T15:06:15;3.42;;;1.23;;
65471;SDS011;52068;50.710;14.492;2023-07-13T15:08:41;1.67;;;1.10;;